createdAt,value
2023-03-19T00:00:30.134Z,98046.00
2023-03-19T00:02:57.629Z,98046.28
2023-03-19T00:05:24.833Z,98052.09
2023-03-19T00:07:52.098Z,98048.09
2023-03-19T00:10:19.095Z,98046.78
2023-03-19T00:12:47.380Z,98039.13
2023-03-19T00:15:15.154Z,98047.56
2023-03-19T00:17:42.781Z,98046.06
2023-03-19T00:20:11.664Z,98041.06
2023-03-19T00:22:39.533Z,98035.88
2023-03-19T00:25:08.023Z,98034.03
2023-03-19T00:27:37.372Z,98029.50
2023-03-19T00:30:06.364Z,98041.75
2023-03-19T00:32:35.653Z,98030.72
2023-03-19T00:35:03.767Z,98030.75
2023-03-19T00:37:30.921Z,98029.22
2023-03-19T00:39:58.783Z,98030.53
2023-03-19T00:42:26.753Z,98035.75
2023-03-19T00:44:54.409Z,98030.94
2023-03-19T00:47:22.323Z,98027.38
2023-03-19T00:49:49.356Z,98023.19
2023-03-19T00:52:16.767Z,98027.78
2023-03-19T00:54:44.354Z,98022.22
2023-03-19T00:57:11.719Z,98019.31
2023-03-19T00:59:39.309Z,98016.41
2023-03-19T01:02:07.081Z,98015.69
2023-03-19T01:04:34.478Z,98020.19
2023-03-19T01:07:01.816Z,98017.47
2023-03-19T01:09:28.815Z,98010.41
2023-03-19T01:11:56.015Z,98009.59
2023-03-19T01:14:23.364Z,98005.91
2023-03-19T01:16:51.257Z,97998.00
2023-03-19T01:19:19.866Z,98004.16
2023-03-19T01:21:49.556Z,97998.69
2023-03-19T01:24:21.247Z,97996.72
2023-03-19T01:26:53.296Z,97997.41
2023-03-19T01:29:29.154Z,97994.91
2023-03-19T01:31:59.913Z,97989.19
2023-03-19T01:35:02.879Z,97982.13
2023-03-19T01:37:30.372Z,97990.72
2023-03-19T01:39:57.731Z,97989.25
2023-03-19T01:42:25.734Z,97990.47
2023-03-19T01:45:32.402Z,97984.38
2023-03-19T01:48:36.034Z,97971.63
2023-03-19T01:51:08.185Z,97963.16
2023-03-19T01:53:59.319Z,97961.03
2023-03-19T01:56:55.288Z,97959.16
2023-03-19T01:59:54.062Z,97969.81
2023-03-19T02:02:32.827Z,97955.41
2023-03-19T02:05:12.241Z,97957.22
2023-03-19T02:07:40.405Z,97952.34
2023-03-19T02:10:10.437Z,97950.72
2023-03-19T02:12:38.970Z,97956.09
2023-03-19T02:15:06.952Z,97952.84
2023-03-19T02:17:34.175Z,97950.81
2023-03-19T02:20:25.686Z,97954.91
2023-03-19T02:23:22.007Z,97958.16
2023-03-19T02:26:03.889Z,97956.53
2023-03-19T02:28:32.129Z,97956.53
2023-03-19T02:30:59.668Z,97946.88
2023-03-19T02:33:26.901Z,97950.53
2023-03-19T02:35:54.065Z,97938.59
2023-03-19T02:38:22.543Z,97943.50
2023-03-19T02:40:52.565Z,97936.97
2023-03-19T02:43:22.426Z,97934.59
2023-03-19T02:45:51.287Z,97931.59
2023-03-19T02:48:18.693Z,97929.16
2023-03-19T02:50:45.996Z,97918.56
2023-03-19T02:53:13.658Z,97914.25
2023-03-19T02:55:41.090Z,97907.72
2023-03-19T02:58:08.159Z,97914.25
2023-03-19T03:00:35.867Z,97916.13
2023-03-19T03:03:03.580Z,97906.59
2023-03-19T03:05:30.979Z,97903.91
2023-03-19T03:07:58.360Z,97901.47
2023-03-19T03:10:25.606Z,97892.56
2023-03-19T03:12:52.851Z,97888.22
2023-03-19T03:15:21.305Z,97899.78
2023-03-19T03:17:49.220Z,97895.44
2023-03-19T03:20:17.391Z,97884.91
2023-03-19T03:22:44.551Z,97886.53
2023-03-19T03:25:12.474Z,97881.66
2023-03-19T03:27:41.444Z,97883.22
2023-03-19T03:30:10.806Z,97883.72
2023-03-19T03:32:38.561Z,97884.81
2023-03-19T03:35:06.788Z,97880.44
2023-03-19T03:37:34.205Z,97877.19
2023-03-19T03:40:06.467Z,97871.47
2023-03-19T03:42:34.101Z,97867.91
2023-03-19T03:45:01.574Z,97870.38
2023-03-19T03:47:28.865Z,97869.56
2023-03-19T03:49:55.910Z,97875.28
2023-03-19T03:52:23.654Z,97859.28
2023-03-19T03:54:50.840Z,97859.88
2023-03-19T03:57:18.128Z,97853.94
2023-03-19T03:59:47.230Z,97850.38
2023-03-19T04:02:14.547Z,97847.13
2023-03-19T04:04:43.005Z,97844.66
2023-03-19T04:07:10.514Z,97841.09
2023-03-19T04:09:41.860Z,97835.41
2023-03-19T04:12:09.281Z,97838.13
2023-03-19T04:14:37.420Z,97832.41
2023-03-19T04:17:05.192Z,97835.66
2023-03-19T04:19:32.602Z,97831.00
2023-03-19T04:21:59.660Z,97835.13
2023-03-19T04:24:27.273Z,97824.78
2023-03-19T04:26:54.978Z,97810.16
2023-03-19T04:29:22.670Z,97806.94
2023-03-19T04:31:50.772Z,97802.06
2023-03-19T04:34:18.370Z,97800.72
2023-03-19T04:36:45.532Z,97789.03
2023-03-19T04:39:13.420Z,97791.47
2023-03-19T04:41:40.880Z,97786.56
2023-03-19T04:44:34.453Z,97774.31
2023-03-19T04:47:02.377Z,97769.41
2023-03-19T04:49:36.850Z,97763.69
2023-03-19T04:52:04.195Z,97768.84
2023-03-19T04:54:31.895Z,97760.97
2023-03-19T04:56:59.325Z,97768.81
2023-03-19T04:59:32.334Z,97762.53
2023-03-19T05:01:59.580Z,97746.47
2023-03-19T05:04:27.020Z,97749.59
2023-03-19T05:07:00.938Z,97736.78
2023-03-19T05:09:30.617Z,97736.16
2023-03-19T05:11:59.728Z,97732.03
2023-03-19T05:14:27.873Z,97729.03
2023-03-19T05:17:07.245Z,97728.91
2023-03-19T05:19:52.270Z,97730.19
2023-03-19T05:22:20.287Z,97717.44
2023-03-19T05:24:48.044Z,97709.56
2023-03-19T05:27:15.574Z,97709.75
2023-03-19T05:29:48.834Z,97700.78
2023-03-19T05:32:22.797Z,97695.09
2023-03-19T05:34:50.475Z,97687.25
2023-03-19T05:37:18.972Z,97689.41
2023-03-19T05:39:52.784Z,97680.22
2023-03-19T05:42:20.224Z,97688.09
2023-03-19T05:44:48.098Z,97673.78
2023-03-19T05:47:23.137Z,97672.69
2023-03-19T05:49:54.304Z,97666.47
2023-03-19T05:52:21.793Z,97659.75
2023-03-19T05:54:50.699Z,97649.19
2023-03-19T05:57:40.873Z,97655.16
2023-03-19T06:00:12.801Z,97643.81
2023-03-19T06:02:40.235Z,97639.50
2023-03-19T06:05:29.952Z,97629.81
2023-03-19T06:08:03.124Z,97628.25
2023-03-19T06:10:47.821Z,97615.53
2023-03-19T06:13:15.073Z,97610.09
2023-03-19T06:16:14.931Z,97594.41
2023-03-19T06:18:52.712Z,97599.09
2023-03-19T06:21:20.462Z,97595.63
2023-03-19T06:23:47.543Z,97593.50
2023-03-19T06:26:18.788Z,97583.19
2023-03-19T06:28:52.260Z,97589.19
2023-03-19T06:31:21.132Z,97585.41
2023-03-19T06:33:54.613Z,97585.94
2023-03-19T06:36:24.079Z,97582.94
2023-03-19T06:38:51.210Z,97584.88
2023-03-19T06:41:18.592Z,97569.16
2023-03-19T06:43:47.862Z,97584.59
2023-03-19T06:46:15.288Z,97568.34
2023-03-19T06:48:42.372Z,97548.78
2023-03-19T06:51:09.705Z,97570.19
2023-03-19T06:53:36.759Z,97557.97
2023-03-19T06:56:04.209Z,97564.50
2023-03-19T06:58:31.513Z,97546.06
2023-03-19T07:01:00.469Z,97551.97
2023-03-19T07:03:27.858Z,97541.16
2023-03-19T07:05:54.933Z,97535.16
2023-03-19T07:08:21.959Z,97539.22
2023-03-19T07:10:49.251Z,97539.22
2023-03-19T07:13:16.404Z,97532.97
2023-03-19T07:15:44.077Z,97522.69
2023-03-19T07:18:12.009Z,97523.50
2023-03-19T07:20:39.473Z,97514.53
2023-03-19T07:23:06.776Z,97507.47
2023-03-19T07:25:33.964Z,97516.94
2023-03-19T07:28:00.910Z,97515.88
2023-03-19T07:30:28.117Z,97501.25
2023-03-19T07:32:55.672Z,97500.97
2023-03-19T07:35:23.151Z,97491.75
2023-03-19T07:37:50.758Z,97489.56
2023-03-19T07:40:17.977Z,97468.69
2023-03-19T07:42:45.966Z,97498.50
2023-03-19T07:45:13.520Z,97487.13
2023-03-19T07:47:40.604Z,97486.84
2023-03-19T07:50:08.267Z,97486.28
2023-03-19T07:52:35.604Z,97480.06
2023-03-19T07:55:03.210Z,97478.44
2023-03-19T07:57:31.269Z,97474.66
2023-03-19T07:59:59.867Z,97480.34
2023-03-19T08:02:27.025Z,97480.03
2023-03-19T08:04:54.430Z,97469.19
2023-03-19T08:07:22.391Z,97474.59
2023-03-19T08:09:49.461Z,97479.75
2023-03-19T08:12:16.502Z,97476.00
2023-03-19T08:14:43.820Z,97476.00
2023-03-19T08:17:11.197Z,97458.16
2023-03-19T08:19:38.588Z,97470.06
2023-03-19T08:22:05.628Z,97460.06
2023-03-19T08:24:32.870Z,97459.31
2023-03-19T08:27:00.609Z,97467.16
2023-03-19T08:29:27.998Z,97472.56
2023-03-19T08:31:55.879Z,97468.47
2023-03-19T08:34:23.632Z,97457.28
2023-03-19T08:36:50.882Z,97446.97
2023-03-19T08:39:18.275Z,97457.50
2023-03-19T08:41:45.630Z,97451.25
2023-03-19T08:44:12.920Z,97455.31
2023-03-19T08:46:40.095Z,97458.31
2023-03-19T08:49:07.412Z,97453.69
2023-03-19T08:51:34.481Z,97461.53
2023-03-19T08:54:02.380Z,97457.81
2023-03-19T08:56:29.755Z,97444.56
2023-03-19T08:58:57.735Z,97446.50
2023-03-19T09:01:24.932Z,97443.53
2023-03-19T09:03:52.412Z,97454.41
2023-03-19T09:06:19.341Z,97459.84
2023-03-19T09:08:46.603Z,97465.25
2023-03-19T09:11:14.580Z,97456.31
2023-03-19T09:13:41.783Z,97453.84
2023-03-19T09:16:09.154Z,97455.75
2023-03-19T09:18:36.556Z,97460.66
2023-03-19T09:21:04.266Z,97460.66
2023-03-19T09:23:31.673Z,97464.72
2023-03-19T09:25:58.968Z,97461.72
2023-03-19T09:28:26.230Z,97456.31
2023-03-19T09:30:53.504Z,97461.72
2023-03-19T09:33:21.143Z,97462.75
2023-03-19T09:35:52.733Z,97453.22
2023-03-19T09:38:21.485Z,97454.19
2023-03-19T09:41:28.529Z,97467.09
2023-03-19T09:44:22.696Z,97457.81
2023-03-19T09:47:08.370Z,97478.84
2023-03-19T09:49:43.253Z,97463.03
2023-03-19T09:52:34.783Z,97481.00
2023-03-19T09:55:28.052Z,97472.72
2023-03-19T09:57:57.682Z,97490.91
2023-03-19T10:00:34.211Z,97478.84
2023-03-19T10:03:24.602Z,97482.13
2023-03-19T10:06:11.816Z,97485.41
2023-03-19T10:08:57.831Z,97481.97
2023-03-19T10:11:40.643Z,97482.06
2023-03-19T10:14:46.003Z,97495.47
2023-03-19T10:17:20.266Z,97494.03
2023-03-19T10:19:51.471Z,97482.34
2023-03-19T10:22:24.372Z,97477.66
2023-03-19T10:24:51.666Z,97503.41
2023-03-19T10:27:21.910Z,97501.94
2023-03-19T10:29:49.308Z,97510.75
2023-03-19T10:32:20.689Z,97508.25
2023-03-19T10:34:49.160Z,97506.03
2023-03-19T10:37:25.108Z,97506.75
2023-03-19T10:39:56.116Z,97509.13
2023-03-19T10:42:33.310Z,97504.00
2023-03-19T10:45:02.923Z,97505.31
2023-03-19T10:47:30.766Z,97505.44
2023-03-19T10:49:58.096Z,97506.69
2023-03-19T10:52:29.176Z,97508.97
2023-03-19T10:55:16.484Z,97503.25
2023-03-19T10:57:44.626Z,97513.63
2023-03-19T11:00:18.409Z,97497.34
2023-03-19T11:02:51.246Z,97504.78
2023-03-19T11:05:21.937Z,97509.59
2023-03-19T11:08:00.360Z,97503.53
2023-03-19T11:10:29.710Z,97499.13
2023-03-19T11:13:05.018Z,97503.25
2023-03-19T11:15:38.706Z,97491.56
2023-03-19T11:18:19.548Z,97501.09
2023-03-19T11:20:55.628Z,97506.84
2023-03-19T11:23:23.077Z,97512.59
2023-03-19T11:25:52.110Z,97509.81
2023-03-19T11:28:26.425Z,97500.03
2023-03-19T11:31:12.185Z,97506.06
2023-03-19T11:33:58.711Z,97489.81
2023-03-19T11:36:33.668Z,97495.69
2023-03-19T11:39:11.413Z,97503.19
2023-03-19T11:42:20.801Z,97501.56
2023-03-19T11:45:16.209Z,97496.03
2023-03-19T11:48:15.304Z,97501.31
2023-03-19T11:51:05.555Z,97512.56
2023-03-19T11:54:00.782Z,97515.47
2023-03-19T11:56:33.153Z,97524.59
2023-03-19T11:59:06.399Z,97539.09
2023-03-19T12:01:33.298Z,97534.53
2023-03-19T12:04:34.191Z,97538.50
2023-03-19T12:07:25.482Z,97539.31
2023-03-19T12:10:10.086Z,97537.09
2023-03-19T12:12:51.254Z,97548.66
2023-03-19T12:15:28.228Z,97542.72
2023-03-19T12:18:17.029Z,97553.47
2023-03-19T12:20:57.529Z,97559.91
2023-03-19T12:23:40.873Z,97556.63
2023-03-19T12:26:09.385Z,97575.69
2023-03-19T12:28:47.577Z,97573.00
2023-03-19T12:31:15.176Z,97578.84
2023-03-19T12:33:54.028Z,97564.81
2023-03-19T12:36:25.946Z,97572.88
2023-03-19T12:39:06.161Z,97569.00
2023-03-19T12:41:33.877Z,97576.25
2023-03-19T12:44:33.154Z,97584.78
2023-03-19T12:47:09.889Z,97581.75
2023-03-19T12:49:58.235Z,97593.78
2023-03-19T12:52:27.713Z,97589.91
2023-03-19T12:55:36.383Z,97591.66
2023-03-19T12:58:24.832Z,97586.84
2023-03-19T13:01:09.195Z,97598.53
2023-03-19T13:03:45.576Z,97606.00
2023-03-19T13:06:48.309Z,97601.91
2023-03-19T13:09:59.273Z,97597.00
2023-03-19T13:12:28.952Z,97606.53
2023-03-19T13:15:14.447Z,97616.69
2023-03-19T13:18:14.337Z,97616.34
2023-03-19T13:20:56.615Z,97616.81
2023-03-19T13:23:32.589Z,97623.22
2023-03-19T13:25:59.945Z,97623.47
2023-03-19T13:28:29.245Z,97619.13
2023-03-19T13:31:07.246Z,97626.38
2023-03-19T13:33:34.890Z,97627.63
2023-03-19T13:36:04.904Z,97631.59
2023-03-19T13:38:42.348Z,97634.50
2023-03-19T13:41:52.194Z,97626.44
2023-03-19T13:44:22.584Z,97627.72
2023-03-19T13:46:51.113Z,97634.13
2023-03-19T13:49:35.136Z,97625.72
2023-03-19T13:52:12.457Z,97633.41
2023-03-19T13:54:40.604Z,97634.44
2023-03-19T13:57:17.880Z,97633.25
2023-03-19T13:59:50.198Z,97642.00
2023-03-19T14:02:26.426Z,97640.38
2023-03-19T14:05:04.287Z,97642.06
2023-03-19T14:07:41.687Z,97652.44
2023-03-19T14:10:22.718Z,97637.84
2023-03-19T14:12:50.061Z,97642.38
2023-03-19T14:15:22.871Z,97645.06
2023-03-19T14:17:53.302Z,97651.72
2023-03-19T14:20:33.658Z,97648.63
2023-03-19T14:23:09.700Z,97656.09
2023-03-19T14:26:03.136Z,97649.53
2023-03-19T14:28:46.987Z,97652.53
2023-03-19T14:31:23.522Z,97651.91
2023-03-19T14:34:02.280Z,97655.88
2023-03-19T14:36:29.642Z,97667.88
2023-03-19T14:39:08.064Z,97672.41
2023-03-19T14:41:40.127Z,97665.28
2023-03-19T14:44:26.105Z,97676.00
2023-03-19T14:47:31.001Z,97682.41
2023-03-19T14:50:35.638Z,97685.13
2023-03-19T14:53:14.846Z,97678.66
2023-03-19T14:55:42.483Z,97685.09
2023-03-19T14:58:12.667Z,97690.53
2023-03-19T15:00:49.176Z,97701.69
2023-03-19T15:03:26.199Z,97704.66
2023-03-19T15:05:57.025Z,97705.72
2023-03-19T15:08:26.232Z,97702.88
2023-03-19T15:11:14.249Z,97706.63
2023-03-19T15:14:18.942Z,97704.63
2023-03-19T15:16:47.854Z,97706.38
2023-03-19T15:19:15.374Z,97709.31
2023-03-19T15:21:43.210Z,97717.97
2023-03-19T15:24:15.196Z,97703.75
2023-03-19T15:26:43.042Z,97721.50
2023-03-19T15:29:12.398Z,97724.25
2023-03-19T15:31:57.581Z,97722.41
2023-03-19T15:34:31.020Z,97723.25
2023-03-19T15:37:12.195Z,97738.50
2023-03-19T15:39:47.867Z,97728.88
2023-03-19T15:42:16.963Z,97740.63
2023-03-19T15:44:47.798Z,97744.75
2023-03-19T15:47:20.287Z,97754.81
2023-03-19T15:50:12.612Z,97758.75
2023-03-19T15:52:41.709Z,97763.50
2023-03-19T15:55:09.280Z,97765.78
2023-03-19T15:57:39.277Z,97765.78
2023-03-19T16:00:09.969Z,97783.88
2023-03-19T16:02:41.270Z,97791.91
2023-03-19T16:05:24.128Z,97796.66
2023-03-19T16:07:59.462Z,97801.97
2023-03-19T16:10:42.093Z,97815.16
2023-03-19T16:13:26.794Z,97825.84
2023-03-19T16:15:56.721Z,97822.13
2023-03-19T16:18:25.394Z,97819.25
2023-03-19T16:21:00.877Z,97829.56
2023-03-19T16:23:49.990Z,97841.28
2023-03-19T16:26:25.353Z,97832.66
2023-03-19T16:28:58.949Z,97851.16
2023-03-19T16:31:29.626Z,97847.50
2023-03-19T16:33:56.932Z,97844.00
2023-03-19T16:36:26.749Z,97856.72
2023-03-19T16:39:16.606Z,97861.88
2023-03-19T16:41:43.835Z,97861.47
2023-03-19T16:44:14.935Z,97867.03
2023-03-19T16:46:42.116Z,97873.19
2023-03-19T16:49:09.845Z,97884.31
2023-03-19T16:51:37.026Z,97879.16
2023-03-19T16:54:04.667Z,97896.63
2023-03-19T16:56:31.733Z,97887.38
2023-03-19T16:59:02.578Z,97890.66
2023-03-19T17:01:29.888Z,97905.66
2023-03-19T17:03:57.441Z,97913.47
2023-03-19T17:06:24.511Z,97925.41
2023-03-19T17:08:52.063Z,97932.81
2023-03-19T17:11:27.735Z,97947.59
2023-03-19T17:13:55.503Z,97956.66
2023-03-19T17:16:23.014Z,97970.22
2023-03-19T17:18:50.566Z,97985.06
2023-03-19T17:21:23.704Z,98008.59
2023-03-19T17:23:51.250Z,98012.88
2023-03-19T17:26:28.343Z,98030.56
2023-03-19T17:28:55.942Z,98035.13
2023-03-19T17:31:24.505Z,98050.38
2023-03-19T17:33:52.824Z,98061.50
2023-03-19T17:36:20.398Z,98055.09
2023-03-19T17:38:47.968Z,98079.09
2023-03-19T17:41:17.359Z,98074.25
2023-03-19T17:43:44.896Z,98079.47
2023-03-19T17:46:23.787Z,98071.72
2023-03-19T17:48:51.599Z,98087.47
2023-03-19T17:51:18.728Z,98099.06
2023-03-19T17:53:50.471Z,98078.34
2023-03-19T17:56:22.333Z,98087.44
2023-03-19T17:58:50.520Z,98114.72
2023-03-19T18:01:26.121Z,98123.41
2023-03-19T18:03:55.010Z,98132.88
2023-03-19T18:06:24.708Z,98129.78
2023-03-19T18:08:52.517Z,98144.41
2023-03-19T18:11:19.881Z,98148.53
2023-03-19T18:13:46.934Z,98149.78
2023-03-19T18:16:23.385Z,98150.00
2023-03-19T18:18:51.074Z,98161.16
2023-03-19T18:21:18.238Z,98182.78
2023-03-19T18:23:46.315Z,98184.22
2023-03-19T18:26:13.685Z,98191.47
2023-03-19T18:28:41.147Z,98198.09
2023-03-19T18:31:15.632Z,98205.50
2023-03-19T18:33:48.078Z,98213.09
2023-03-19T18:36:18.665Z,98220.34
2023-03-19T18:38:45.725Z,98222.44
2023-03-19T18:41:17.689Z,98235.84
2023-03-19T18:43:45.899Z,98240.88
2023-03-19T18:46:18.812Z,98243.44
2023-03-19T18:48:46.435Z,98262.34
2023-03-19T18:51:13.596Z,98274.75
2023-03-19T18:53:40.686Z,98293.38
2023-03-19T18:56:20.875Z,98284.91
2023-03-19T18:58:48.596Z,98270.63
2023-03-19T19:01:16.474Z,98291.34
2023-03-19T19:03:44.944Z,98288.72
2023-03-19T19:06:47.284Z,98314.69
2023-03-19T19:09:14.839Z,98292.09
2023-03-19T19:11:42.081Z,98300.16
2023-03-19T19:14:15.927Z,98321.81
2023-03-19T19:16:43.386Z,98312.22
2023-03-19T19:19:19.084Z,98324.16
2023-03-19T19:21:47.436Z,98315.13
2023-03-19T19:24:15.064Z,98325.94
2023-03-19T19:26:42.310Z,98332.16
2023-03-19T19:29:10.988Z,98335.44
2023-03-19T19:31:38.051Z,98343.34
2023-03-19T19:34:05.833Z,98357.91
2023-03-19T19:36:33.049Z,98357.06
2023-03-19T19:39:00.628Z,98359.66
2023-03-19T19:41:28.444Z,98376.63
2023-03-19T19:43:55.762Z,98389.50
2023-03-19T19:46:23.472Z,98378.06
2023-03-19T19:48:50.856Z,98409.88
2023-03-19T19:51:25.492Z,98406.66
2023-03-19T19:53:52.696Z,98417.03
2023-03-19T19:56:24.141Z,98418.53
2023-03-19T19:58:54.735Z,98415.59
2023-03-19T20:01:23.939Z,98411.78
2023-03-19T20:03:51.730Z,98433.66
2023-03-19T20:06:19.233Z,98443.69
2023-03-19T20:08:48.951Z,98446.19
2023-03-19T20:11:23.466Z,98463.78
2023-03-19T20:13:54.062Z,98448.63
2023-03-19T20:16:23.188Z,98452.34
2023-03-19T20:18:53.242Z,98468.84
2023-03-19T20:21:20.861Z,98459.91
2023-03-19T20:23:52.547Z,98475.22
2023-03-19T20:26:21.253Z,98468.72
2023-03-19T20:28:48.373Z,98496.22
2023-03-19T20:31:17.451Z,98492.06
2023-03-19T20:33:45.068Z,98509.75
2023-03-19T20:36:15.914Z,98526.66
2023-03-19T20:38:43.317Z,98497.06
2023-03-19T20:41:17.281Z,98528.22
2023-03-19T20:43:44.818Z,98518.34
2023-03-19T20:46:12.231Z,98533.28
2023-03-19T20:48:39.612Z,98541.06
2023-03-19T20:51:07.483Z,98548.59
2023-03-19T20:53:34.592Z,98562.06
2023-03-19T20:56:04.118Z,98590.41
2023-03-19T20:58:34.248Z,98592.06
2023-03-19T21:01:02.815Z,98610.34
2023-03-19T21:03:31.197Z,98633.25
2023-03-19T21:06:02.731Z,98611.63
2023-03-19T21:08:38.887Z,98629.69
2023-03-19T21:11:08.727Z,98633.66
2023-03-19T21:13:35.904Z,98662.44
2023-03-19T21:16:03.609Z,98653.09
2023-03-19T21:18:30.710Z,98658.13
2023-03-19T21:20:58.414Z,98671.38
2023-03-19T21:23:37.198Z,98664.56
2023-03-19T21:26:24.741Z,98677.47
2023-03-19T21:28:53.622Z,98681.25
2023-03-19T21:31:21.512Z,98679.41
2023-03-19T21:33:49.610Z,98688.38
2023-03-19T21:36:16.793Z,98711.75
2023-03-19T21:38:44.551Z,98726.69
2023-03-19T21:41:25.732Z,98732.44
2023-03-19T21:43:54.344Z,98754.16
2023-03-19T21:46:25.009Z,98745.81
2023-03-19T21:48:54.416Z,98763.25
2023-03-19T21:51:22.258Z,98760.50
2023-03-19T21:53:49.356Z,98796.59
2023-03-19T21:56:33.006Z,98803.09
2023-03-19T21:59:27.384Z,98804.38
2023-03-19T22:01:54.820Z,98812.47
2023-03-19T22:04:22.140Z,98825.81
2023-03-19T22:06:49.356Z,98835.53
2023-03-19T22:09:16.843Z,98852.41
2023-03-19T22:11:46.067Z,98857.44
2023-03-19T22:14:30.228Z,98876.78
2023-03-19T22:16:57.954Z,98886.03
2023-03-19T22:19:25.601Z,98892.53
2023-03-19T22:21:53.435Z,98892.41
2023-03-19T22:24:20.469Z,98896.44
2023-03-19T22:26:49.475Z,98924.06
2023-03-19T22:29:19.452Z,98922.91
2023-03-19T22:31:50.749Z,98940.66
2023-03-19T22:34:20.636Z,98951.19
2023-03-19T22:36:48.016Z,98955.25
2023-03-19T22:39:15.447Z,98984.63
2023-03-19T22:41:45.523Z,98995.41
2023-03-19T22:44:31.315Z,99003.66
2023-03-19T22:46:59.205Z,99022.44
2023-03-19T22:49:27.829Z,99012.88
2023-03-19T22:51:56.143Z,99030.19
2023-03-19T22:54:23.128Z,99029.41
2023-03-19T22:56:50.593Z,99040.13
2023-03-19T22:59:18.313Z,99048.16
2023-03-19T23:01:46.470Z,99046.13
2023-03-19T23:04:30.498Z,99058.72
2023-03-19T23:06:59.003Z,99064.72
2023-03-19T23:09:29.164Z,99073.38
2023-03-19T23:11:57.566Z,99096.50
2023-03-19T23:14:30.063Z,99083.81
2023-03-19T23:17:03.685Z,99095.53
2023-03-19T23:19:35.427Z,99094.41
2023-03-19T23:22:04.590Z,99106.34
2023-03-19T23:24:32.132Z,99111.69
2023-03-19T23:27:00.310Z,99129.41
2023-03-19T23:29:33.959Z,99130.25
2023-03-19T23:32:01.939Z,99129.72
2023-03-19T23:34:29.196Z,99143.81
2023-03-19T23:36:57.732Z,99159.53
2023-03-19T23:39:25.426Z,99151.88
2023-03-19T23:41:55.694Z,99159.53
2023-03-19T23:44:23.369Z,99165.06
2023-03-19T23:46:50.906Z,99168.13
2023-03-19T23:49:25.594Z,99173.28
2023-03-19T23:51:52.732Z,99169.88
2023-03-19T23:54:34.198Z,99191.88
2023-03-19T23:57:04.656Z,99200.84
2023-03-19T23:59:37.188Z,99197.63
